sensor_id;sensor_type;location;lat;lon;timestamp;pressure;altitude;pressure_sealevel;temperature
73937;BMP180;59249;59.736;30.568;2023-07-20T00:00:05;99505.00;;;14.60
73937;BMP180;59249;59.736;30.568;2023-07-20T00:03:10;99506.00;;;14.60
73937;BMP180;59249;59.736;30.568;2023-07-20T00:05:44;99509.00;;;14.60
73937;BMP180;59249;59.736;30.568;2023-07-20T00:08:13;99510.00;;;14.60
73937;BMP180;59249;59.736;30.568;2023-07-20T00:10:43;99510.00;;;14.50
73937;BMP180;59249;59.736;30.568;2023-07-20T00:13:12;99502.00;;;14.60
73937;BMP180;59249;59.736;30.568;2023-07-20T00:15:43;99505.00;;;14.60
73937;BMP180;59249;59.736;30.568;2023-07-20T00:18:13;99506.00;;;14.60
73937;BMP180;59249;59.736;30.568;2023-07-20T00:20:42;99503.00;;;14.60
73937;BMP180;59249;59.736;30.568;2023-07-20T00:23:10;99508.00;;;14.70
73937;BMP180;59249;59.736;30.568;2023-07-20T00:25:40;99515.00;;;14.70
73937;BMP180;59249;59.736;30.568;2023-07-20T00:28:08;99499.00;;;14.70
73937;BMP180;59249;59.736;30.568;2023-07-20T00:30:38;99510.00;;;14.70
73937;BMP180;59249;59.736;30.568;2023-07-20T00:33:11;99500.00;;;14.70
73937;BMP180;59249;59.736;30.568;2023-07-20T00:35:44;99510.00;;;14.70
73937;BMP180;59249;59.736;30.568;2023-07-20T00:38:16;99507.00;;;14.80
73937;BMP180;59249;59.736;30.568;2023-07-20T00:40:45;99504.00;;;14.90
73937;BMP180;59249;59.736;30.568;2023-07-20T00:43:13;99503.00;;;14.90
73937;BMP180;59249;59.736;30.568;2023-07-20T00:45:43;99502.00;;;14.90
73937;BMP180;59249;59.736;30.568;2023-07-20T00:48:14;99505.00;;;14.90
73937;BMP180;59249;59.736;30.568;2023-07-20T00:50:44;99503.00;;;14.90
73937;BMP180;59249;59.736;30.568;2023-07-20T00:53:15;99499.00;;;15.00
73937;BMP180;59249;59.736;30.568;2023-07-20T00:55:44;99500.00;;;14.90
73937;BMP180;59249;59.736;30.568;2023-07-20T00:58:14;99504.00;;;15.00
73937;BMP180;59249;59.736;30.568;2023-07-20T01:00:42;99498.00;;;15.00
73937;BMP180;59249;59.736;30.568;2023-07-20T01:03:11;99511.00;;;15.00
73937;BMP180;59249;59.736;30.568;2023-07-20T01:05:48;99507.00;;;15.00
73937;BMP180;59249;59.736;30.568;2023-07-20T01:08:31;99509.00;;;15.00
73937;BMP180;59249;59.736;30.568;2023-07-20T01:11:12;99509.00;;;15.00
73937;BMP180;59249;59.736;30.568;2023-07-20T01:13:44;99511.00;;;15.00
73937;BMP180;59249;59.736;30.568;2023-07-20T01:16:14;99513.00;;;15.00
73937;BMP180;59249;59.736;30.568;2023-07-20T01:18:44;99516.00;;;15.10
73937;BMP180;59249;59.736;30.568;2023-07-20T01:21:20;99523.00;;;15.10
73937;BMP180;59249;59.736;30.568;2023-07-20T01:24:12;99520.00;;;15.10
73937;BMP180;59249;59.736;30.568;2023-07-20T01:27:20;99519.00;;;15.20
73937;BMP180;59249;59.736;30.568;2023-07-20T01:30:19;99515.00;;;15.10
73937;BMP180;59249;59.736;30.568;2023-07-20T01:33:03;99507.00;;;15.10
73937;BMP180;59249;59.736;30.568;2023-07-20T01:35:36;99515.00;;;15.20
73937;BMP180;59249;59.736;30.568;2023-07-20T01:38:07;99520.00;;;15.10
73937;BMP180;59249;59.736;30.568;2023-07-20T01:40:37;99522.00;;;15.20
73937;BMP180;59249;59.736;30.568;2023-07-20T01:43:07;99523.00;;;15.10
73937;BMP180;59249;59.736;30.568;2023-07-20T01:45:36;99520.00;;;15.10
73937;BMP180;59249;59.736;30.568;2023-07-20T01:48:06;99515.00;;;15.10
73937;BMP180;59249;59.736;30.568;2023-07-20T01:50:35;99518.00;;;15.20
73937;BMP180;59249;59.736;30.568;2023-07-20T01:53:04;99527.00;;;15.20
73937;BMP180;59249;59.736;30.568;2023-07-20T01:55:33;99524.00;;;15.10
73937;BMP180;59249;59.736;30.568;2023-07-20T01:58:02;99515.00;;;15.10
73937;BMP180;59249;59.736;30.568;2023-07-20T02:00:31;99523.00;;;15.10
73937;BMP180;59249;59.736;30.568;2023-07-20T02:02:59;99523.00;;;15.20
73937;BMP180;59249;59.736;30.568;2023-07-20T02:05:30;99508.00;;;15.10
73937;BMP180;59249;59.736;30.568;2023-07-20T02:07:58;99523.00;;;15.10
73937;BMP180;59249;59.736;30.568;2023-07-20T02:10:28;99518.00;;;15.10
73937;BMP180;59249;59.736;30.568;2023-07-20T02:12:57;99520.00;;;15.20
73937;BMP180;59249;59.736;30.568;2023-07-20T02:15:26;99518.00;;;15.10
73937;BMP180;59249;59.736;30.568;2023-07-20T02:17:55;99516.00;;;15.10
73937;BMP180;59249;59.736;30.568;2023-07-20T02:20:24;99513.00;;;15.10
73937;BMP180;59249;59.736;30.568;2023-07-20T02:22:56;99506.00;;;15.10
73937;BMP180;59249;59.736;30.568;2023-07-20T02:25:25;99512.00;;;15.20
73937;BMP180;59249;59.736;30.568;2023-07-20T02:27:53;99522.00;;;15.10
73937;BMP180;59249;59.736;30.568;2023-07-20T02:30:26;99515.00;;;15.10
73937;BMP180;59249;59.736;30.568;2023-07-20T02:32:55;99521.00;;;15.20
73937;BMP180;59249;59.736;30.568;2023-07-20T02:35:26;99518.00;;;15.20
73937;BMP180;59249;59.736;30.568;2023-07-20T02:37:56;99518.00;;;15.20
73937;BMP180;59249;59.736;30.568;2023-07-20T02:40:25;99531.00;;;15.30
73937;BMP180;59249;59.736;30.568;2023-07-20T02:42:54;99521.00;;;15.30
73937;BMP180;59249;59.736;30.568;2023-07-20T02:45:23;99519.00;;;15.30
73937;BMP180;59249;59.736;30.568;2023-07-20T02:47:52;99513.00;;;15.40
73937;BMP180;59249;59.736;30.568;2023-07-20T02:50:21;99516.00;;;15.40
73937;BMP180;59249;59.736;30.568;2023-07-20T02:52:50;99517.00;;;15.50
73937;BMP180;59249;59.736;30.568;2023-07-20T02:55:20;99524.00;;;15.60
73937;BMP180;59249;59.736;30.568;2023-07-20T02:57:50;99516.00;;;15.60
73937;BMP180;59249;59.736;30.568;2023-07-20T03:00:19;99525.00;;;15.70
73937;BMP180;59249;59.736;30.568;2023-07-20T03:02:48;99515.00;;;15.70
73937;BMP180;59249;59.736;30.568;2023-07-20T03:05:20;99519.00;;;15.80
73937;BMP180;59249;59.736;30.568;2023-07-20T03:07:49;99519.00;;;15.80
73937;BMP180;59249;59.736;30.568;2023-07-20T03:10:18;99515.00;;;15.80
73937;BMP180;59249;59.736;30.568;2023-07-20T03:12:48;99519.00;;;15.80
73937;BMP180;59249;59.736;30.568;2023-07-20T03:15:17;99518.00;;;15.80
73937;BMP180;59249;59.736;30.568;2023-07-20T03:17:46;99516.00;;;15.90
73937;BMP180;59249;59.736;30.568;2023-07-20T03:20:16;99511.00;;;15.90
73937;BMP180;59249;59.736;30.568;2023-07-20T03:22:45;99513.00;;;16.00
73937;BMP180;59249;59.736;30.568;2023-07-20T03:25:15;99525.00;;;15.90
73937;BMP180;59249;59.736;30.568;2023-07-20T03:27:45;99517.00;;;15.90
73937;BMP180;59249;59.736;30.568;2023-07-20T03:30:15;99525.00;;;16.00
73937;BMP180;59249;59.736;30.568;2023-07-20T03:32:44;99525.00;;;16.00
73937;BMP180;59249;59.736;30.568;2023-07-20T03:35:13;99519.00;;;16.00
73937;BMP180;59249;59.736;30.568;2023-07-20T03:37:43;99525.00;;;15.90
73937;BMP180;59249;59.736;30.568;2023-07-20T03:40:12;99522.00;;;15.90
73937;BMP180;59249;59.736;30.568;2023-07-20T03:42:41;99520.00;;;15.80
73937;BMP180;59249;59.736;30.568;2023-07-20T03:45:10;99523.00;;;15.90
73937;BMP180;59249;59.736;30.568;2023-07-20T03:47:41;99525.00;;;15.90
73937;BMP180;59249;59.736;30.568;2023-07-20T03:50:11;99524.00;;;15.90
73937;BMP180;59249;59.736;30.568;2023-07-20T03:52:40;99524.00;;;15.90
73937;BMP180;59249;59.736;30.568;2023-07-20T03:55:10;99525.00;;;15.90
73937;BMP180;59249;59.736;30.568;2023-07-20T03:57:39;99523.00;;;15.90
73937;BMP180;59249;59.736;30.568;2023-07-20T04:00:09;99524.00;;;15.90
73937;BMP180;59249;59.736;30.568;2023-07-20T04:02:40;99521.00;;;16.00
73937;BMP180;59249;59.736;30.568;2023-07-20T04:05:09;99530.00;;;16.00
73937;BMP180;59249;59.736;30.568;2023-07-20T04:07:38;99535.00;;;16.10
73937;BMP180;59249;59.736;30.568;2023-07-20T04:10:16;99529.00;;;16.20
73937;BMP180;59249;59.736;30.568;2023-07-20T04:12:49;99527.00;;;16.40
73937;BMP180;59249;59.736;30.568;2023-07-20T04:15:18;99527.00;;;16.60
73937;BMP180;59249;59.736;30.568;2023-07-20T04:17:49;99515.00;;;16.80
73937;BMP180;59249;59.736;30.568;2023-07-20T04:20:18;99523.00;;;17.00
73937;BMP180;59249;59.736;30.568;2023-07-20T04:22:48;99527.00;;;17.10
73937;BMP180;59249;59.736;30.568;2023-07-20T04:25:18;99525.00;;;17.30
73937;BMP180;59249;59.736;30.568;2023-07-20T04:27:47;99524.00;;;17.50
73937;BMP180;59249;59.736;30.568;2023-07-20T04:30:18;99530.00;;;17.70
73937;BMP180;59249;59.736;30.568;2023-07-20T04:32:51;99529.00;;;17.80
73937;BMP180;59249;59.736;30.568;2023-07-20T04:35:50;99529.00;;;17.90
73937;BMP180;59249;59.736;30.568;2023-07-20T04:38:23;99522.00;;;18.00
73937;BMP180;59249;59.736;30.568;2023-07-20T04:41:07;99530.00;;;18.10
73937;BMP180;59249;59.736;30.568;2023-07-20T04:43:41;99537.00;;;18.20
73937;BMP180;59249;59.736;30.568;2023-07-20T04:46:11;99538.00;;;18.20
73937;BMP180;59249;59.736;30.568;2023-07-20T04:48:42;99512.00;;;18.20
73937;BMP180;59249;59.736;30.568;2023-07-20T04:51:11;99532.00;;;18.20
73937;BMP180;59249;59.736;30.568;2023-07-20T04:53:42;99537.00;;;18.10
73937;BMP180;59249;59.736;30.568;2023-07-20T04:56:11;99530.00;;;18.10
73937;BMP180;59249;59.736;30.568;2023-07-20T04:58:40;99531.00;;;18.20
73937;BMP180;59249;59.736;30.568;2023-07-20T05:01:11;99535.00;;;18.20
73937;BMP180;59249;59.736;30.568;2023-07-20T05:03:40;99543.00;;;18.20
73937;BMP180;59249;59.736;30.568;2023-07-20T05:06:20;99531.00;;;18.30
73937;BMP180;59249;59.736;30.568;2023-07-20T05:08:49;99545.00;;;18.20
73937;BMP180;59249;59.736;30.568;2023-07-20T05:11:18;99547.00;;;18.30
73937;BMP180;59249;59.736;30.568;2023-07-20T05:13:46;99540.00;;;18.40
73937;BMP180;59249;59.736;30.568;2023-07-20T05:16:16;99538.00;;;18.50
73937;BMP180;59249;59.736;30.568;2023-07-20T05:18:45;99539.00;;;18.50
73937;BMP180;59249;59.736;30.568;2023-07-20T05:21:14;99543.00;;;18.50
73937;BMP180;59249;59.736;30.568;2023-07-20T05:23:44;99549.00;;;18.60
73937;BMP180;59249;59.736;30.568;2023-07-20T05:26:14;99537.00;;;18.50
73937;BMP180;59249;59.736;30.568;2023-07-20T05:28:43;99535.00;;;18.50
73937;BMP180;59249;59.736;30.568;2023-07-20T05:31:12;99529.00;;;18.50
73937;BMP180;59249;59.736;30.568;2023-07-20T05:33:41;99547.00;;;18.50
73937;BMP180;59249;59.736;30.568;2023-07-20T05:36:10;99557.00;;;18.60
73937;BMP180;59249;59.736;30.568;2023-07-20T05:38:39;99547.00;;;18.40
73937;BMP180;59249;59.736;30.568;2023-07-20T05:41:11;99551.00;;;18.30
73937;BMP180;59249;59.736;30.568;2023-07-20T05:43:40;99549.00;;;18.20
73937;BMP180;59249;59.736;30.568;2023-07-20T05:46:09;99554.00;;;18.30
73937;BMP180;59249;59.736;30.568;2023-07-20T05:48:38;99533.00;;;18.40
73937;BMP180;59249;59.736;30.568;2023-07-20T05:51:08;99540.00;;;18.50
73937;BMP180;59249;59.736;30.568;2023-07-20T05:53:37;99539.00;;;18.50
73937;BMP180;59249;59.736;30.568;2023-07-20T05:56:07;99531.00;;;18.60
73937;BMP180;59249;59.736;30.568;2023-07-20T05:58:38;99541.00;;;18.60
73937;BMP180;59249;59.736;30.568;2023-07-20T06:01:07;99542.00;;;18.70
73937;BMP180;59249;59.736;30.568;2023-07-20T06:03:36;99549.00;;;18.80
73937;BMP180;59249;59.736;30.568;2023-07-20T06:06:05;99547.00;;;18.90
73937;BMP180;59249;59.736;30.568;2023-07-20T06:08:36;99540.00;;;19.00
73937;BMP180;59249;59.736;30.568;2023-07-20T06:11:05;99553.00;;;19.00
73937;BMP180;59249;59.736;30.568;2023-07-20T06:13:34;99549.00;;;19.00
73937;BMP180;59249;59.736;30.568;2023-07-20T06:16:04;99564.00;;;19.20
73937;BMP180;59249;59.736;30.568;2023-07-20T06:18:33;99562.00;;;19.30
73937;BMP180;59249;59.736;30.568;2023-07-20T06:21:02;99568.00;;;19.40
73937;BMP180;59249;59.736;30.568;2023-07-20T06:23:31;99561.00;;;19.50
73937;BMP180;59249;59.736;30.568;2023-07-20T06:26:00;99557.00;;;19.60
73937;BMP180;59249;59.736;30.568;2023-07-20T06:28:28;99544.00;;;19.60
73937;BMP180;59249;59.736;30.568;2023-07-20T06:31:00;99554.00;;;19.60
73937;BMP180;59249;59.736;30.568;2023-07-20T06:33:31;99564.00;;;19.80
73937;BMP180;59249;59.736;30.568;2023-07-20T06:36:00;99568.00;;;19.90
73937;BMP180;59249;59.736;30.568;2023-07-20T06:38:28;99552.00;;;20.10
73937;BMP180;59249;59.736;30.568;2023-07-20T06:40:58;99567.00;;;20.10
73937;BMP180;59249;59.736;30.568;2023-07-20T06:43:30;99572.00;;;20.10
73937;BMP180;59249;59.736;30.568;2023-07-20T06:46:02;99560.00;;;20.10
73937;BMP180;59249;59.736;30.568;2023-07-20T06:48:32;99582.00;;;20.20
73937;BMP180;59249;59.736;30.568;2023-07-20T06:51:21;99580.00;;;20.20
73937;BMP180;59249;59.736;30.568;2023-07-20T06:53:51;99573.00;;;20.40
73937;BMP180;59249;59.736;30.568;2023-07-20T06:56:20;99570.00;;;20.50
73937;BMP180;59249;59.736;30.568;2023-07-20T06:58:52;99573.00;;;20.60
73937;BMP180;59249;59.736;30.568;2023-07-20T07:01:21;99572.00;;;20.60
73937;BMP180;59249;59.736;30.568;2023-07-20T07:03:52;99555.00;;;20.60
73937;BMP180;59249;59.736;30.568;2023-07-20T07:06:22;99574.00;;;20.60
73937;BMP180;59249;59.736;30.568;2023-07-20T07:08:52;99581.00;;;20.70
73937;BMP180;59249;59.736;30.568;2023-07-20T07:11:21;99567.00;;;20.70
73937;BMP180;59249;59.736;30.568;2023-07-20T07:13:51;99580.00;;;20.50
73937;BMP180;59249;59.736;30.568;2023-07-20T07:16:23;99586.00;;;20.60
73937;BMP180;59249;59.736;30.568;2023-07-20T07:18:54;99569.00;;;20.60
73937;BMP180;59249;59.736;30.568;2023-07-20T07:21:27;99569.00;;;20.60
73937;BMP180;59249;59.736;30.568;2023-07-20T07:23:56;99574.00;;;20.60
73937;BMP180;59249;59.736;30.568;2023-07-20T07:26:27;99571.00;;;20.50
73937;BMP180;59249;59.736;30.568;2023-07-20T07:28:55;99563.00;;;20.50
73937;BMP180;59249;59.736;30.568;2023-07-20T07:31:25;99566.00;;;20.60
73937;BMP180;59249;59.736;30.568;2023-07-20T07:33:55;99576.00;;;20.60
73937;BMP180;59249;59.736;30.568;2023-07-20T07:36:24;99579.00;;;20.50
73937;BMP180;59249;59.736;30.568;2023-07-20T07:38:53;99564.00;;;20.50
73937;BMP180;59249;59.736;30.568;2023-07-20T07:41:24;99572.00;;;20.40
73937;BMP180;59249;59.736;30.568;2023-07-20T07:43:53;99594.00;;;20.50
73937;BMP180;59249;59.736;30.568;2023-07-20T07:46:22;99578.00;;;20.70
73937;BMP180;59249;59.736;30.568;2023-07-20T07:48:51;99579.00;;;20.90
73937;BMP180;59249;59.736;30.568;2023-07-20T07:51:22;99588.00;;;21.10
73937;BMP180;59249;59.736;30.568;2023-07-20T07:53:50;99589.00;;;21.10
73937;BMP180;59249;59.736;30.568;2023-07-20T07:56:19;99595.00;;;21.10
73937;BMP180;59249;59.736;30.568;2023-07-20T07:58:51;99606.00;;;21.00
73937;BMP180;59249;59.736;30.568;2023-07-20T08:01:20;99600.00;;;21.10
73937;BMP180;59249;59.736;30.568;2023-07-20T08:03:49;99597.00;;;21.10
73937;BMP180;59249;59.736;30.568;2023-07-20T08:06:19;99595.00;;;21.00
73937;BMP180;59249;59.736;30.568;2023-07-20T08:08:49;99600.00;;;21.00
73937;BMP180;59249;59.736;30.568;2023-07-20T08:11:18;99600.00;;;20.90
73937;BMP180;59249;59.736;30.568;2023-07-20T08:13:47;99595.00;;;20.70
73937;BMP180;59249;59.736;30.568;2023-07-20T08:16:16;99598.00;;;20.80
73937;BMP180;59249;59.736;30.568;2023-07-20T08:18:44;99583.00;;;20.90
73937;BMP180;59249;59.736;30.568;2023-07-20T08:21:14;99594.00;;;20.90
73937;BMP180;59249;59.736;30.568;2023-07-20T08:23:44;99592.00;;;20.90
73937;BMP180;59249;59.736;30.568;2023-07-20T08:26:17;99595.00;;;21.00
73937;BMP180;59249;59.736;30.568;2023-07-20T08:28:50;99598.00;;;21.10
73937;BMP180;59249;59.736;30.568;2023-07-20T08:31:19;99579.00;;;21.20
73937;BMP180;59249;59.736;30.568;2023-07-20T08:33:48;99598.00;;;21.20
73937;BMP180;59249;59.736;30.568;2023-07-20T08:36:17;99601.00;;;21.20
73937;BMP180;59249;59.736;30.568;2023-07-20T08:38:49;99598.00;;;21.30
73937;BMP180;59249;59.736;30.568;2023-07-20T08:41:18;99605.00;;;21.30
73937;BMP180;59249;59.736;30.568;2023-07-20T08:43:47;99532.00;;;21.30
73937;BMP180;59249;59.736;30.568;2023-07-20T08:46:17;99590.00;;;21.30
73937;BMP180;59249;59.736;30.568;2023-07-20T08:48:46;99616.00;;;21.50
73937;BMP180;59249;59.736;30.568;2023-07-20T08:51:15;99604.00;;;21.60
73937;BMP180;59249;59.736;30.568;2023-07-20T08:53:45;99601.00;;;21.50
73937;BMP180;59249;59.736;30.568;2023-07-20T08:56:19;99614.00;;;21.50
73937;BMP180;59249;59.736;30.568;2023-07-20T08:58:51;99617.00;;;21.60
73937;BMP180;59249;59.736;30.568;2023-07-20T09:01:21;99620.00;;;21.50
73937;BMP180;59249;59.736;30.568;2023-07-20T09:03:50;99615.00;;;21.50
73937;BMP180;59249;59.736;30.568;2023-07-20T09:06:19;99627.00;;;21.60
73937;BMP180;59249;59.736;30.568;2023-07-20T09:08:49;99628.00;;;21.70
73937;BMP180;59249;59.736;30.568;2023-07-20T09:11:19;99628.00;;;21.80
73937;BMP180;59249;59.736;30.568;2023-07-20T09:13:48;99614.00;;;21.80
73937;BMP180;59249;59.736;30.568;2023-07-20T09:16:29;99634.00;;;21.80
73937;BMP180;59249;59.736;30.568;2023-07-20T09:18:59;99650.00;;;21.70
73937;BMP180;59249;59.736;30.568;2023-07-20T09:21:29;99657.00;;;21.40
73937;BMP180;59249;59.736;30.568;2023-07-20T09:24:00;99648.00;;;21.20
73937;BMP180;59249;59.736;30.568;2023-07-20T09:26:28;99647.00;;;21.20
73937;BMP180;59249;59.736;30.568;2023-07-20T09:28:57;99666.00;;;20.80
73937;BMP180;59249;59.736;30.568;2023-07-20T09:31:28;99667.00;;;20.70
73937;BMP180;59249;59.736;30.568;2023-07-20T09:34:07;99656.00;;;20.30
73937;BMP180;59249;59.736;30.568;2023-07-20T09:36:36;99675.00;;;20.00
73937;BMP180;59249;59.736;30.568;2023-07-20T09:39:09;99662.00;;;20.00
73937;BMP180;59249;59.736;30.568;2023-07-20T09:41:41;99666.00;;;20.10
73937;BMP180;59249;59.736;30.568;2023-07-20T09:44:14;99668.00;;;20.20
73937;BMP180;59249;59.736;30.568;2023-07-20T09:46:47;99680.00;;;19.90
73937;BMP180;59249;59.736;30.568;2023-07-20T09:49:19;99674.00;;;19.50
73937;BMP180;59249;59.736;30.568;2023-07-20T09:51:52;99665.00;;;19.20
73937;BMP180;59249;59.736;30.568;2023-07-20T09:54:31;99668.00;;;18.80
73937;BMP180;59249;59.736;30.568;2023-07-20T09:57:02;99661.00;;;18.60
73937;BMP180;59249;59.736;30.568;2023-07-20T09:59:31;99687.00;;;18.10
73937;BMP180;59249;59.736;30.568;2023-07-20T10:02:02;99679.00;;;17.60
73937;BMP180;59249;59.736;30.568;2023-07-20T10:04:41;99673.00;;;17.30
73937;BMP180;59249;59.736;30.568;2023-07-20T10:07:14;99674.00;;;17.10
73937;BMP180;59249;59.736;30.568;2023-07-20T10:09:54;99679.00;;;17.00
73937;BMP180;59249;59.736;30.568;2023-07-20T10:12:27;99672.00;;;16.80
73937;BMP180;59249;59.736;30.568;2023-07-20T10:15:09;99666.00;;;16.40
73937;BMP180;59249;59.736;30.568;2023-07-20T10:17:47;99670.00;;;16.40
73937;BMP180;59249;59.736;30.568;2023-07-20T10:20:29;99655.00;;;16.20
73937;BMP180;59249;59.736;30.568;2023-07-20T10:23:04;99662.00;;;16.20
73937;BMP180;59249;59.736;30.568;2023-07-20T10:25:37;99652.00;;;16.20
73937;BMP180;59249;59.736;30.568;2023-07-20T10:28:10;99659.00;;;16.30
73937;BMP180;59249;59.736;30.568;2023-07-20T10:30:39;99654.00;;;16.30
73937;BMP180;59249;59.736;30.568;2023-07-20T10:33:11;99649.00;;;16.40
73937;BMP180;59249;59.736;30.568;2023-07-20T10:35:51;99642.00;;;16.60
73937;BMP180;59249;59.736;30.568;2023-07-20T10:38:38;99645.00;;;16.90
73937;BMP180;59249;59.736;30.568;2023-07-20T10:41:20;99653.00;;;17.00
73937;BMP180;59249;59.736;30.568;2023-07-20T10:43:58;99653.00;;;17.10
73937;BMP180;59249;59.736;30.568;2023-07-20T10:46:42;99658.00;;;17.10
73937;BMP180;59249;59.736;30.568;2023-07-20T10:49:14;99654.00;;;17.20
73937;BMP180;59249;59.736;30.568;2023-07-20T10:51:44;99655.00;;;17.40
73937;BMP180;59249;59.736;30.568;2023-07-20T10:54:46;99653.00;;;17.60
73937;BMP180;59249;59.736;30.568;2023-07-20T10:57:25;99648.00;;;17.80
73937;BMP180;59249;59.736;30.568;2023-07-20T11:00:12;99656.00;;;17.90
73937;BMP180;59249;59.736;30.568;2023-07-20T11:02:46;99651.00;;;18.00
73937;BMP180;59249;59.736;30.568;2023-07-20T11:05:35;99647.00;;;18.10
73937;BMP180;59249;59.736;30.568;2023-07-20T11:08:10;99647.00;;;18.20
73937;BMP180;59249;59.736;30.568;2023-07-20T11:10:39;99648.00;;;18.40
73937;BMP180;59249;59.736;30.568;2023-07-20T11:13:20;99646.00;;;18.50
73937;BMP180;59249;59.736;30.568;2023-07-20T11:16:04;99649.00;;;18.70
73937;BMP180;59249;59.736;30.568;2023-07-20T11:18:34;99658.00;;;18.90
73937;BMP180;59249;59.736;30.568;2023-07-20T11:21:09;99651.00;;;19.10
73937;BMP180;59249;59.736;30.568;2023-07-20T11:23:39;99651.00;;;19.40
73937;BMP180;59249;59.736;30.568;2023-07-20T11:26:08;99643.00;;;19.50
73937;BMP180;59249;59.736;30.568;2023-07-20T11:28:40;99635.00;;;19.90
73937;BMP180;59249;59.736;30.568;2023-07-20T11:31:09;99633.00;;;20.10
73937;BMP180;59249;59.736;30.568;2023-07-20T11:33:38;99634.00;;;20.20
73937;BMP180;59249;59.736;30.568;2023-07-20T11:36:08;99637.00;;;20.20
73937;BMP180;59249;59.736;30.568;2023-07-20T11:38:41;99639.00;;;20.30
73937;BMP180;59249;59.736;30.568;2023-07-20T11:41:12;99636.00;;;20.10
73937;BMP180;59249;59.736;30.568;2023-07-20T11:43:45;99623.00;;;20.10
73937;BMP180;59249;59.736;30.568;2023-07-20T11:46:14;99649.00;;;20.00
73937;BMP180;59249;59.736;30.568;2023-07-20T11:48:44;99637.00;;;20.00
73937;BMP180;59249;59.736;30.568;2023-07-20T11:51:14;99634.00;;;20.00
73937;BMP180;59249;59.736;30.568;2023-07-20T11:53:44;99644.00;;;20.10
73937;BMP180;59249;59.736;30.568;2023-07-20T11:56:15;99633.00;;;20.00
73937;BMP180;59249;59.736;30.568;2023-07-20T11:58:46;99643.00;;;19.90
73937;BMP180;59249;59.736;30.568;2023-07-20T12:01:16;99630.00;;;19.70
73937;BMP180;59249;59.736;30.568;2023-07-20T12:03:48;99641.00;;;19.70
73937;BMP180;59249;59.736;30.568;2023-07-20T12:06:17;99641.00;;;19.70
73937;BMP180;59249;59.736;30.568;2023-07-20T12:08:46;99642.00;;;19.70
73937;BMP180;59249;59.736;30.568;2023-07-20T12:11:30;99641.00;;;19.90
73937;BMP180;59249;59.736;30.568;2023-07-20T12:14:02;99639.00;;;19.90
73937;BMP180;59249;59.736;30.568;2023-07-20T12:16:43;99633.00;;;20.10
73937;BMP180;59249;59.736;30.568;2023-07-20T12:19:13;99636.00;;;20.00
73937;BMP180;59249;59.736;30.568;2023-07-20T12:21:41;99647.00;;;20.20
73937;BMP180;59249;59.736;30.568;2023-07-20T12:24:10;99647.00;;;20.40
73937;BMP180;59249;59.736;30.568;2023-07-20T12:26:39;99645.00;;;20.40
73937;BMP180;59249;59.736;30.568;2023-07-20T12:29:09;99645.00;;;20.30
73937;BMP180;59249;59.736;30.568;2023-07-20T12:31:38;99654.00;;;20.30
73937;BMP180;59249;59.736;30.568;2023-07-20T12:34:07;99649.00;;;20.20
73937;BMP180;59249;59.736;30.568;2023-07-20T12:36:38;99646.00;;;20.40
73937;BMP180;59249;59.736;30.568;2023-07-20T12:39:07;99645.00;;;20.40
73937;BMP180;59249;59.736;30.568;2023-07-20T12:41:36;99639.00;;;20.40
73937;BMP180;59249;59.736;30.568;2023-07-20T12:44:05;99630.00;;;20.50
73937;BMP180;59249;59.736;30.568;2023-07-20T12:46:35;99635.00;;;20.60
73937;BMP180;59249;59.736;30.568;2023-07-20T12:49:06;99627.00;;;20.70
73937;BMP180;59249;59.736;30.568;2023-07-20T12:51:34;99618.00;;;20.90
73937;BMP180;59249;59.736;30.568;2023-07-20T12:54:03;99631.00;;;21.30
73937;BMP180;59249;59.736;30.568;2023-07-20T12:56:32;99630.00;;;21.50
73937;BMP180;59249;59.736;30.568;2023-07-20T12:59:03;99633.00;;;21.60
73937;BMP180;59249;59.736;30.568;2023-07-20T13:01:32;99638.00;;;21.60
73937;BMP180;59249;59.736;30.568;2023-07-20T13:04:05;99625.00;;;21.60
73937;BMP180;59249;59.736;30.568;2023-07-20T13:06:39;99639.00;;;21.50
73937;BMP180;59249;59.736;30.568;2023-07-20T13:09:08;99637.00;;;21.60
73937;BMP180;59249;59.736;30.568;2023-07-20T13:11:37;99635.00;;;21.60
73937;BMP180;59249;59.736;30.568;2023-07-20T13:14:06;99634.00;;;21.60
73937;BMP180;59249;59.736;30.568;2023-07-20T13:16:36;99636.00;;;21.70
73937;BMP180;59249;59.736;30.568;2023-07-20T13:19:05;99639.00;;;21.80
73937;BMP180;59249;59.736;30.568;2023-07-20T13:21:34;99636.00;;;21.90
73937;BMP180;59249;59.736;30.568;2023-07-20T13:24:05;99634.00;;;21.80
73937;BMP180;59249;59.736;30.568;2023-07-20T13:26:34;99635.00;;;21.90
73937;BMP180;59249;59.736;30.568;2023-07-20T13:29:02;99632.00;;;21.90
73937;BMP180;59249;59.736;30.568;2023-07-20T13:31:32;99635.00;;;22.00
73937;BMP180;59249;59.736;30.568;2023-07-20T13:34:03;99634.00;;;21.90
73937;BMP180;59249;59.736;30.568;2023-07-20T13:36:34;99629.00;;;22.00
73937;BMP180;59249;59.736;30.568;2023-07-20T13:39:03;99636.00;;;22.10
73937;BMP180;59249;59.736;30.568;2023-07-20T13:41:32;99630.00;;;22.10
73937;BMP180;59249;59.736;30.568;2023-07-20T13:44:01;99634.00;;;22.20
73937;BMP180;59249;59.736;30.568;2023-07-20T13:46:33;99625.00;;;22.20
73937;BMP180;59249;59.736;30.568;2023-07-20T13:49:06;99634.00;;;22.10
73937;BMP180;59249;59.736;30.568;2023-07-20T13:51:41;99638.00;;;22.10
73937;BMP180;59249;59.736;30.568;2023-07-20T13:54:10;99634.00;;;22.00
73937;BMP180;59249;59.736;30.568;2023-07-20T13:56:42;99647.00;;;21.70
73937;BMP180;59249;59.736;30.568;2023-07-20T13:59:11;99636.00;;;21.80
73937;BMP180;59249;59.736;30.568;2023-07-20T14:01:41;99657.00;;;21.70
73937;BMP180;59249;59.736;30.568;2023-07-20T14:04:11;99654.00;;;21.30
73937;BMP180;59249;59.736;30.568;2023-07-20T14:06:40;99637.00;;;21.50
73937;BMP180;59249;59.736;30.568;2023-07-20T14:09:11;99638.00;;;21.40
73937;BMP180;59249;59.736;30.568;2023-07-20T14:11:39;99638.00;;;21.40
73937;BMP180;59249;59.736;30.568;2023-07-20T14:14:11;99643.00;;;21.50
73937;BMP180;59249;59.736;30.568;2023-07-20T14:16:41;99650.00;;;21.20
73937;BMP180;59249;59.736;30.568;2023-07-20T14:19:11;99633.00;;;21.30